Time;durP1;ratioP1;P1;durP2;ratioP2;P2;SDS_P1;SDS_P2;PMS_P1;PMS_P2;Temp;Humidity;BMP_temperature;BMP_pressure;BME280_temperature;BME280_humidity;BME280_pressure;Samples;Min_cycle;Max_cycle;Signal;HPM_P1;HPM_P2
2023/10/23 00:02:08;;;;;;;26.40;17.90;;;;;;;9.58;100.00;100124.45;129852;1257;115203;-59
2023/10/23 00:05:10;;;;;;;22.70;16.80;;;;;;;9.53;100.00;100130.38;129843;1259;114697;-60
2023/10/23 00:08:13;;;;;;;28.80;18.00;;;;;;;9.48;100.00;100130.61;129808;1260;114731;-59
2023/10/23 00:11:28;;;;;;;31.00;18.20;;;;;;;9.44;100.00;100132.80;129995;1273;114782;-59
2023/10/23 00:14:31;;;;;;;23.40;17.10;;;;;;;9.40;100.00;100132.09;129880;1259;115177;-58
2023/10/23 00:17:33;;;;;;;25.80;17.10;;;;;;;9.36;100.00;100135.30;130028;1260;114832;-58
2023/10/23 00:20:35;;;;;;;26.20;18.70;;;;;;;9.35;100.00;100138.02;130124;1256;114715;-59
2023/10/23 00:23:38;;;;;;;24.30;17.40;;;;;;;9.34;100.00;100136.12;129879;1259;114722;-58
2023/10/23 00:26:40;;;;;;;26.50;16.80;;;;;;;9.34;100.00;100134.87;129890;1259;115322;-58
2023/10/23 00:29:42;;;;;;;23.20;16.70;;;;;;;9.34;100.00;100136.83;129888;1271;114734;-59
2023/10/23 00:32:47;;;;;;;30.50;17.90;;;;;;;9.34;100.00;100131.45;129848;1278;128313;-58
2023/10/23 00:35:49;;;;;;;25.60;17.10;;;;;;;9.35;100.00;100125.57;129614;1257;114804;-59
2023/10/23 00:38:52;;;;;;;24.80;18.00;;;;;;;9.34;100.00;100128.26;129964;1259;114684;-59
2023/10/23 00:41:54;;;;;;;26.90;17.20;;;;;;;9.35;100.00;100127.12;129926;1259;114735;-59
2023/10/23 00:44:57;;;;;;;31.20;19.60;;;;;;;9.35;100.00;100129.10;130006;1257;114737;-59
2023/10/23 00:47:59;;;;;;;29.30;19.70;;;;;;;9.35;100.00;100124.83;129594;1263;116351;-58
2023/10/23 00:51:02;;;;;;;33.40;19.20;;;;;;;9.35;100.00;100124.83;129884;1259;114715;-59
2023/10/23 00:54:06;;;;;;;32.30;20.00;;;;;;;9.36;100.00;100128.20;129841;1278;114802;-59
2023/10/23 00:57:08;;;;;;;33.70;20.00;;;;;;;9.37;100.00;100125.27;129929;1256;114716;-59
2023/10/23 01:00:11;;;;;;;27.50;18.80;;;;;;;9.37;100.00;100122.20;130056;1259;114753;-59
2023/10/23 01:03:13;;;;;;;32.10;18.60;;;;;;;9.37;100.00;100124.36;129983;1257;114701;-59
2023/10/23 01:06:15;;;;;;;30.30;18.40;;;;;;;9.37;100.00;100120.64;129813;1259;114713;-58
2023/10/23 01:09:18;;;;;;;28.90;19.80;;;;;;;9.37;100.00;100119.02;129837;1278;114838;-59
2023/10/23 01:12:20;;;;;;;25.30;18.40;;;;;;;9.36;100.00;100115.70;129607;1278;127909;-59
2023/10/23 01:15:23;;;;;;;31.80;18.80;;;;;;;9.35;100.00;100111.27;129884;1278;114799;-58
2023/10/23 01:18:25;;;;;;;29.40;18.20;;;;;;;9.34;100.00;100102.78;129859;1256;114717;-58
2023/10/23 01:21:28;;;;;;;30.30;18.00;;;;;;;9.33;100.00;100100.17;129930;1259;115240;-59
2023/10/23 01:24:33;;;;;;;27.70;17.70;;;;;;;9.33;100.00;100101.61;129662;1278;115015;-59
2023/10/23 01:27:35;;;;;;;24.50;17.10;;;;;;;9.30;100.00;100102.77;129592;1263;114923;-59
2023/10/23 01:30:40;;;;;;;26.20;17.20;;;;;;;9.28;100.00;100097.02;129924;1259;114746;-60
2023/10/23 01:33:42;;;;;;;27.30;18.20;;;;;;;9.26;100.00;100093.69;129913;1278;116373;-60
2023/10/23 01:36:44;;;;;;;31.80;21.40;;;;;;;9.26;100.00;100094.25;129534;1264;115562;-60
2023/10/23 01:39:46;;;;;;;31.50;21.30;;;;;;;9.26;100.00;100095.32;129952;1259;114785;-60
2023/10/23 01:42:49;;;;;;;31.90;21.70;;;;;;;9.26;100.00;100099.60;129796;1259;114803;-59
2023/10/23 01:45:51;;;;;;;30.20;22.10;;;;;;;9.24;100.00;100097.19;129934;1259;114718;-58
2023/10/23 01:48:54;;;;;;;41.90;24.90;;;;;;;9.24;100.00;100098.27;129840;1278;114855;-59
2023/10/23 01:51:56;;;;;;;34.50;22.40;;;;;;;9.24;100.00;100101.63;129875;1259;114774;-59
2023/10/23 01:55:01;;;;;;;37.10;24.10;;;;;;;9.26;100.00;100100.67;129494;1263;115127;-59
2023/10/23 01:58:04;;;;;;;47.70;26.40;;;;;;;9.28;100.00;100102.16;129949;1256;114729;-58
2023/10/23 02:01:06;;;;;;;37.10;24.90;;;;;;;9.32;100.00;100104.32;129885;1257;114752;-59
2023/10/23 02:04:08;;;;;;;38.80;24.60;;;;;;;9.35;100.00;100103.30;129970;1260;115204;-60
2023/10/23 02:07:11;;;;;;;42.00;25.50;;;;;;;9.36;100.00;100103.92;129532;1263;115364;-59
2023/10/23 02:10:13;;;;;;;36.60;23.00;;;;;;;9.39;100.00;100106.98;129795;1278;114810;-60
2023/10/23 02:13:15;;;;;;;35.00;23.30;;;;;;;9.42;100.00;100106.86;129896;1258;114706;-60
2023/10/23 02:16:17;;;;;;;38.40;22.90;;;;;;;9.43;100.00;100106.98;129638;1259;114767;-61
2023/10/23 02:19:20;;;;;;;39.80;26.00;;;;;;;9.46;100.00;100109.49;129797;1259;114744;-60
2023/10/23 02:22:22;;;;;;;33.80;22.50;;;;;;;9.49;100.00;100111.88;129922;1272;114929;-59
2023/10/23 02:25:24;;;;;;;36.50;23.40;;;;;;;9.51;100.00;100108.55;129609;1261;115023;-60
2023/10/23 02:28:27;;;;;;;31.40;22.50;;;;;;;9.54;100.00;100115.73;129759;1258;114712;-60
2023/10/23 02:31:29;;;;;;;32.40;21.40;;;;;;;9.56;100.00;100112.58;129855;1259;114794;-61
2023/10/23 02:34:33;;;;;;;35.80;22.50;;;;;;;9.58;100.00;100115.33;129852;1257;130071;-60
2023/10/23 02:37:35;;;;;;;41.20;28.30;;;;;;;9.61;100.00;100114.88;129784;1267;115256;-61
2023/10/23 02:40:37;;;;;;;39.20;24.90;;;;;;;9.62;100.00;100118.02;129774;1259;114760;-59
2023/10/23 02:43:39;;;;;;;35.80;22.10;;;;;;;9.64;100.00;100122.38;130002;1256;114808;-59
2023/10/23 02:46:42;;;;;;;36.60;23.90;;;;;;;9.67;100.00;100125.46;129529;1259;115485;-59
2023/10/23 02:49:44;;;;;;;37.10;25.20;;;;;;;9.70;100.00;100131.20;129787;1261;114678;-60
2023/10/23 02:52:46;;;;;;;38.10;24.30;;;;;;;9.72;100.00;100139.09;129885;1267;114859;-60
2023/10/23 02:55:49;;;;;;;35.20;23.70;;;;;;;9.75;100.00;100139.53;129594;1256;127945;-60
2023/10/23 02:58:51;;;;;;;44.20;25.60;;;;;;;9.76;100.00;100138.92;129720;1259;114868;-59
2023/10/23 03:01:53;;;;;;;36.50;24.50;;;;;;;9.78;100.00;100146.85;129871;1256;114830;-61
2023/10/23 03:04:56;;;;;;;37.20;25.00;;;;;;;9.81;100.00;100150.63;129916;1259;114715;-60
2023/10/23 03:07:58;;;;;;;40.30;26.00;;;;;;;9.83;100.00;100154.42;129711;1259;114677;-62
2023/10/23 03:11:00;;;;;;;40.90;27.30;;;;;;;9.85;100.00;100157.73;129670;1260;115216;-61
2023/10/23 03:14:03;;;;;;;41.60;26.40;;;;;;;9.89;100.00;100155.42;129720;1271;114795;-61
2023/10/23 03:17:06;;;;;;;45.10;26.80;;;;;;;9.92;100.00;100154.59;129727;1278;128950;-62
2023/10/23 03:20:09;;;;;;;36.80;22.30;;;;;;;9.93;100.00;100158.43;129698;1259;115283;-59
2023/10/23 03:23:11;;;;;;;32.20;19.60;;;;;;;9.95;100.00;100163.85;129868;1256;114868;-60
2023/10/23 03:26:14;;;;;;;30.30;18.60;;;;;;;9.98;100.00;100168.70;130080;1259;114819;-62
2023/10/23 03:29:17;;;;;;;27.70;16.90;;;;;;;10.00;100.00;100168.40;127208;1275;3466077;-61
2023/10/23 03:32:19;;;;;;;27.60;16.60;;;;;;;10.03;100.00;100171.84;129565;1260;115144;-60
2023/10/23 03:35:21;;;;;;;24.80;16.30;;;;;;;10.06;100.00;100179.73;129951;1274;114726;-60
2023/10/23 03:38:24;;;;;;;25.30;15.30;;;;;;;10.08;100.00;100182.48;129815;1278;114675;-59
2023/10/23 03:41:26;;;;;;;23.70;16.10;;;;;;;10.12;100.00;100184.27;129851;1256;115223;-59
2023/10/23 03:44:28;;;;;;;24.20;15.40;;;;;;;10.14;100.00;100181.64;129795;1268;115167;-61
2023/10/23 03:47:31;;;;;;;26.60;15.90;;;;;;;10.16;100.00;100173.88;129995;1259;114738;-59
2023/10/23 03:50:36;;;;;;;29.40;15.40;;;;;;;10.18;100.00;100174.33;129917;1257;114678;-59
2023/10/23 03:53:38;;;;;;;20.20;14.00;;;;;;;10.19;100.00;100173.36;129879;1259;115135;-60
2023/10/23 03:56:41;;;;;;;22.90;14.30;;;;;;;10.22;100.00;100171.30;129801;1255;114837;-60
2023/10/23 03:59:44;;;;;;;26.50;14.00;;;;;;;10.24;100.00;100177.98;129757;1261;115419;-59
2023/10/23 04:02:46;;;;;;;21.50;12.80;;;;;;;10.25;100.00;100177.04;130018;1259;114792;-60
2023/10/23 04:05:49;;;;;;;20.60;13.10;;;;;;;10.27;100.00;100177.11;129848;1278;114704;-60
2023/10/23 04:08:52;;;;;;;24.60;14.30;;;;;;;10.28;100.00;100179.54;129904;1257;114823;-59
2023/10/23 04:11:54;;;;;;;20.50;13.90;;;;;;;10.28;100.00;100178.09;129934;1260;115399;-60
2023/10/23 04:14:57;;;;;;;23.30;14.00;;;;;;;10.30;100.00;100180.14;129858;1273;114943;-60
2023/10/23 04:18:00;;;;;;;21.80;13.80;;;;;;;10.31;100.00;100178.83;129922;1257;114693;-60
2023/10/23 04:21:07;;;;;;;22.20;14.00;;;;;;;10.32;100.00;100180.79;129947;1259;114774;-61
2023/10/23 04:24:11;;;;;;;27.50;15.10;;;;;;;10.33;100.00;100185.34;129683;1263;115528;-61
2023/10/23 04:27:14;;;;;;;22.70;13.40;;;;;;;10.35;100.00;100186.35;129722;1260;115409;-62
2023/10/23 04:30:17;;;;;;;26.80;15.10;;;;;;;10.36;100.00;100185.92;129841;1259;114882;-61
2023/10/23 04:33:23;;;;;;;21.00;15.00;;;;;;;10.38;100.00;100186.21;129794;1272;114857;-61
2023/10/23 04:36:25;;;;;;;20.60;13.30;;;;;;;10.37;100.00;100182.30;129423;1259;116435;-60
2023/10/23 04:39:28;;;;;;;22.10;13.90;;;;;;;10.37;100.00;100183.20;129838;1259;114817;-60
2023/10/23 04:42:30;;;;;;;23.70;14.90;;;;;;;10.38;100.00;100185.84;129754;1274;114837;-60
2023/10/23 04:45:34;;;;;;;22.30;13.90;;;;;;;10.38;100.00;100183.71;129922;1256;114687;-61
2023/10/23 04:48:37;;;;;;;19.60;13.40;;;;;;;10.37;100.00;100182.48;129806;1269;114715;-61
2023/10/23 04:51:38;;;;;;;21.90;13.30;;;;;;;10.38;100.00;100182.46;129601;1267;114834;-61
2023/10/23 04:54:41;;;;;;;22.70;13.10;;;;;;;10.37;100.00;100182.66;129837;1259;115145;-60
2023/10/23 04:57:43;;;;;;;19.80;14.20;;;;;;;10.38;100.00;100184.77;129734;1257;115475;-60
2023/10/23 05:00:45;;;;;;;17.30;13.10;;;;;;;10.37;100.00;100188.36;129942;1259;114765;-61
2023/10/23 05:03:48;;;;;;;22.40;14.90;;;;;;;10.37;100.00;100195.69;129797;1270;114804;-60
2023/10/23 05:06:52;;;;;;;22.90;15.60;;;;;;;10.37;100.00;100189.81;129680;1256;114826;-62
2023/10/23 05:09:54;;;;;;;20.70;14.10;;;;;;;10.37;100.00;100198.58;129542;1272;115244;-60
2023/10/23 05:12:57;;;;;;;22.10;14.90;;;;;;;10.37;100.00;100202.48;129692;1259;114728;-61
2023/10/23 05:16:06;;;;;;;20.30;13.40;;;;;;;10.37;100.00;100204.80;129557;1263;115087;-61
2023/10/23 05:19:08;;;;;;;21.50;14.50;;;;;;;10.37;100.00;100212.30;129775;1259;115257;-61
2023/10/23 05:22:11;;;;;;;20.30;14.30;;;;;;;10.37;100.00;100217.67;129736;1257;114902;-61
2023/10/23 05:25:13;;;;;;;22.20;15.90;;;;;;;10.38;100.00;100224.60;129868;1278;114695;-60
2023/10/23 05:28:15;;;;;;;20.80;15.40;;;;;;;10.38;100.00;100227.45;129781;1259;114771;-61
2023/10/23 05:31:18;;;;;;;30.60;18.30;;;;;;;10.39;100.00;100233.10;129699;1270;114713;-61
2023/10/23 05:34:20;;;;;;;33.80;20.70;;;;;;;10.41;100.00;100232.32;129735;1278;114645;-61
2023/10/23 05:37:22;;;;;;;43.50;23.20;;;;;;;10.43;100.00;100238.98;129838;1270;114751;-60
2023/10/23 05:40:24;;;;;;;39.60;23.80;;;;;;;10.44;100.00;100239.45;129736;1278;114812;-60
2023/10/23 05:43:27;;;;;;;41.90;24.00;;;;;;;10.46;100.00;100241.52;129803;1259;114697;-61
2023/10/23 05:46:29;;;;;;;42.00;24.90;;;;;;;10.48;100.00;100237.86;129654;1261;114818;-60
2023/10/23 05:49:34;;;;;;;39.80;23.50;;;;;;;10.51;100.00;100242.17;129775;1278;114791;-61
2023/10/23 05:52:36;;;;;;;34.40;21.40;;;;;;;10.52;100.00;100248.73;129713;1257;114710;-60
2023/10/23 05:55:38;;;;;;;38.00;21.60;;;;;;;10.53;100.00;100249.90;129742;1259;114727;-60
2023/10/23 05:58:40;;;;;;;37.50;22.30;;;;;;;10.54;100.00;100244.84;129917;1257;114825;-60
2023/10/23 06:01:42;;;;;;;34.10;21.00;;;;;;;10.57;100.00;100250.80;129774;1257;115198;-59
2023/10/23 06:04:45;;;;;;;33.50;20.30;;;;;;;10.59;100.00;100253.55;129782;1255;115432;-61
2023/10/23 06:07:47;;;;;;;31.70;20.40;;;;;;;10.62;100.00;100257.67;129742;1256;116370;-61
2023/10/23 06:10:49;;;;;;;38.50;21.70;;;;;;;10.67;100.00;100262.30;129802;1278;115354;-61
2023/10/23 06:13:51;;;;;;;34.10;21.20;;;;;;;10.72;100.00;100264.17;129778;1257;114759;-61
2023/10/23 06:16:53;;;;;;;36.00;21.40;;;;;;;10.75;100.00;100268.08;129821;1259;114693;-61
2023/10/23 06:19:55;;;;;;;31.50;19.60;;;;;;;10.79;100.00;100271.98;129492;1265;128391;-61
2023/10/23 06:23:01;;;;;;;32.80;21.80;;;;;;;10.83;100.00;100275.77;129684;1259;115218;-61
2023/10/23 06:26:04;;;;;;;28.00;18.90;;;;;;;10.85;100.00;100273.86;130020;1278;114739;-62
2023/10/23 06:29:06;;;;;;;28.10;19.00;;;;;;;10.86;100.00;100273.48;129958;1259;114967;-61
2023/10/23 06:32:08;;;;;;;49.90;25.50;;;;;;;10.87;100.00;100279.67;129938;1272;114907;-61
2023/10/23 06:35:10;;;;;;;36.50;23.40;;;;;;;10.88;100.00;100281.77;129834;1256;114769;-61
2023/10/23 06:38:12;;;;;;;37.50;22.90;;;;;;;10.90;100.00;100290.18;129548;1267;128460;-61
2023/10/23 06:41:15;;;;;;;45.50;24.50;;;;;;;10.96;100.00;100288.11;129819;1257;114708;-60
2023/10/23 06:44:19;;;;;;;40.70;23.90;;;;;;;11.05;100.00;100291.23;129818;1259;114735;-60
2023/10/23 06:47:21;;;;;;;39.80;24.80;;;;;;;11.16;100.00;100289.45;129525;1261;115349;-62
2023/10/23 06:50:23;;;;;;;40.30;25.20;;;;;;;11.26;100.00;100287.14;129734;1278;115150;-61
2023/10/23 06:53:25;;;;;;;52.30;26.10;;;;;;;11.34;100.00;100287.58;129923;1259;115136;-61
2023/10/23 06:56:28;;;;;;;50.90;28.60;;;;;;;11.43;100.00;100285.55;129910;1259;114713;-61
2023/10/23 06:59:30;;;;;;;53.90;28.70;;;;;;;11.49;100.00;100292.02;129727;1271;115193;-61
2023/10/23 07:02:33;;;;;;;41.00;25.50;;;;;;;11.51;100.00;100295.30;129831;1278;114837;-60
2023/10/23 07:05:38;;;;;;;41.70;25.30;;;;;;;11.55;100.00;100296.30;129787;1256;114783;-61
2023/10/23 07:08:40;;;;;;;38.00;25.90;;;;;;;11.58;100.00;100298.52;129609;1257;114800;-60
2023/10/23 07:11:42;;;;;;;35.40;24.20;;;;;;;11.59;100.00;100302.36;129802;1259;115162;-62
2023/10/23 07:14:45;;;;;;;42.20;25.80;;;;;;;11.61;100.00;100303.87;130093;1261;114775;-61
2023/10/23 07:17:47;;;;;;;42.40;24.70;;;;;;;11.64;100.00;100304.96;129814;1259;114732;-60
2023/10/23 07:20:57;;;;;;;44.40;28.70;;;;;;;11.69;100.00;100303.63;129482;1262;129053;-60
2023/10/23 07:23:58;;;;;;;36.30;27.00;;;;;;;11.75;100.00;100306.86;129443;1264;114866;-61
2023/10/23 07:27:01;;;;;;;35.30;24.20;;;;;;;11.81;100.00;100306.02;129675;1260;115090;-61
2023/10/23 07:30:04;;;;;;;32.40;21.70;;;;;;;11.87;100.00;100305.90;129659;1280;114745;-61
2023/10/23 07:33:06;;;;;;;32.00;21.50;;;;;;;11.91;100.00;100303.34;129800;1261;114723;-61
2023/10/23 07:36:12;;;;;;;30.80;19.90;;;;;;;11.96;100.00;100304.84;129693;1267;114673;-61
2023/10/23 07:39:14;;;;;;;31.30;19.30;;;;;;;12.06;100.00;100302.91;129315;1264;127822;-61
2023/10/23 07:42:17;;;;;;;35.70;19.30;;;;;;;12.20;100.00;100303.93;129735;1260;114955;-61
2023/10/23 07:45:19;;;;;;;29.30;18.80;;;;;;;12.35;100.00;100301.10;129577;1259;115240;-61
2023/10/23 07:48:23;;;;;;;25.10;17.30;;;;;;;12.52;100.00;100297.98;129604;1264;114803;-62
2023/10/23 07:51:25;;;;;;;19.80;12.30;;;;;;;12.70;100.00;100291.23;129565;1257;115326;-61
2023/10/23 07:54:27;;;;;;;28.10;16.10;;;;;;;12.88;100.00;100290.14;129725;1259;114715;-61
2023/10/23 07:57:30;;;;;;;27.10;14.60;;;;;;;13.11;100.00;100294.14;129711;1259;114711;-61
2023/10/23 08:00:32;;;;;;;21.90;13.80;;;;;;;13.36;100.00;100294.09;129682;1259;129093;-59
2023/10/23 08:03:35;;;;;;;21.70;13.60;;;;;;;13.63;100.00;100296.94;129789;1278;114813;-62
2023/10/23 08:06:37;;;;;;;24.50;11.70;;;;;;;13.90;100.00;100297.75;129814;1259;114728;-59
2023/10/23 08:09:39;;;;;;;22.10;12.60;;;;;;;14.02;100.00;100299.68;129844;1259;114804;-59
2023/10/23 08:12:42;;;;;;;23.20;12.60;;;;;;;14.18;100.00;100299.95;129507;1257;115103;-59
2023/10/23 08:15:44;;;;;;;26.50;12.30;;;;;;;14.36;100.00;100296.80;129736;1269;114789;-59
2023/10/23 08:18:46;;;;;;;23.90;12.30;;;;;;;14.46;100.00;100298.16;129648;1256;114809;-60
2023/10/23 08:21:48;;;;;;;23.20;13.40;;;;;;;14.62;100.00;100299.08;129521;1274;128702;-59
2023/10/23 08:24:51;;;;;;;27.60;13.60;;;;;;;14.75;100.00;100297.52;129780;1259;114811;-62
2023/10/23 08:27:53;;;;;;;22.20;11.80;;;;;;;14.88;100.00;100295.91;129914;1259;114874;-61
2023/10/23 08:30:57;;;;;;;22.30;13.40;;;;;;;14.99;100.00;100299.47;129541;1259;114827;-61
2023/10/23 08:34:00;;;;;;;;;;;;;;;15.18;100.00;100296.44;129747;1262;114791;-62
2023/10/23 08:37:02;;;;;;;26.70;11.30;;;;;;;15.33;100.00;100295.35;129676;1256;114704;-62
2023/10/23 08:40:06;;;;;;;19.70;11.40;;;;;;;15.40;100.00;100289.82;129708;1270;114698;-61
2023/10/23 08:43:08;;;;;;;20.70;12.00;;;;;;;15.51;100.00;100292.50;129741;1272;115099;-61
2023/10/23 08:46:10;;;;;;;27.40;12.40;;;;;;;15.66;100.00;100290.73;129702;1263;114890;-61
2023/10/23 08:49:12;;;;;;;24.20;11.60;;;;;;;15.79;100.00;100291.44;129643;1262;114766;-61
2023/10/23 08:52:16;;;;;;;19.10;11.00;;;;;;;15.95;100.00;100293.96;129837;1259;114768;-61
2023/10/23 08:55:18;;;;;;;14.90;10.40;;;;;;;16.13;100.00;100292.80;129825;1271;114895;-61
2023/10/23 08:58:21;;;;;;;25.20;10.70;;;;;;;16.22;100.00;100285.81;129647;1261;114985;-60
2023/10/23 09:01:25;;;;;;;26.20;11.60;;;;;;;16.28;100.00;100290.67;129976;1261;114712;-61
2023/10/23 09:04:28;;;;;;;20.20;10.10;;;;;;;16.32;100.00;100294.45;129594;1278;114906;-60
2023/10/23 09:07:31;;;;;;;19.90;10.60;;;;;;;16.28;100.00;100292.66;129767;1259;115086;-61
2023/10/23 09:11:00;;;;;;;21.70;9.50;;;;;;;16.26;100.00;100292.58;129599;1259;115361;-61
2023/10/23 09:14:02;;;;;;;16.80;9.70;;;;;;;16.17;100.00;100295.07;129740;1274;114622;-61
2023/10/23 09:17:05;;;;;;;17.40;10.20;;;;;;;16.06;100.00;100295.82;129744;1278;114740;-61
2023/10/23 09:20:16;;;;;;;17.00;9.80;;;;;;;15.96;100.00;100295.34;129789;1257;115205;-61
2023/10/23 09:23:18;;;;;;;17.90;10.30;;;;;;;15.88;100.00;100293.89;129620;1265;114719;-61
2023/10/23 09:26:22;;;;;;;23.00;11.00;;;;;;;15.83;100.00;100291.31;129822;1272;114626;-60
2023/10/23 09:29:26;;;;;;;16.60;7.90;;;;;;;15.85;100.00;100293.58;129782;1278;114817;-60
2023/10/23 09:32:29;;;;;;;19.70;7.30;;;;;;;15.86;100.00;100293.89;129721;1259;114780;-59
2023/10/23 09:35:31;;;;;;;16.30;7.60;;;;;;;15.86;100.00;100290.95;129775;1270;114767;-61
2023/10/23 09:38:34;;;;;;;16.70;7.00;;;;;;;15.85;99.42;100296.07;129886;1260;114704;-60
2023/10/23 09:41:37;;;;;;;20.60;6.40;;;;;;;15.80;98.53;100300.34;130022;1263;114706;-60
2023/10/23 09:44:40;;;;;;;14.90;6.30;;;;;;;15.77;98.59;100299.16;129862;1259;114795;-61
2023/10/23 09:47:45;;;;;;;19.60;6.60;;;;;;;15.73;97.84;100297.47;129567;1278;114758;-60
2023/10/23 09:50:49;;;;;;;13.40;6.20;;;;;;;15.72;98.18;100290.54;129726;1269;127944;-60
2023/10/23 09:53:59;;;;;;;16.80;5.70;;;;;;;15.72;97.83;100293.19;129566;1260;115234;-61
2023/10/23 09:57:03;;;;;;;15.50;6.20;;;;;;;15.72;98.07;100290.51;129753;1259;114786;-60
2023/10/23 10:00:14;;;;;;;17.90;6.30;;;;;;;15.78;98.50;100291.89;129635;1262;114769;-60
2023/10/23 10:03:20;;;;;;;14.90;5.30;;;;;;;15.84;97.74;100292.71;129735;1259;115647;-60
2023/10/23 10:06:24;;;;;;;16.00;5.30;;;;;;;15.88;97.20;100289.21;129736;1269;129558;-61
2023/10/23 10:09:27;;;;;;;13.70;4.50;;;;;;;15.92;96.71;100286.20;129516;1265;114886;-61
2023/10/23 10:12:29;;;;;;;14.70;4.40;;;;;;;15.94;96.21;100282.83;129925;1259;115372;-61
2023/10/23 10:15:34;;;;;;;15.80;4.50;;;;;;;15.97;95.97;100277.02;129844;1262;115134;-61
2023/10/23 10:18:36;;;;;;;11.50;4.80;;;;;;;16.01;95.51;100275.64;129949;1278;114840;-61
2023/10/23 10:21:45;;;;;;;10.80;4.20;;;;;;;16.04;95.47;100275.08;129835;1260;114795;-60
2023/10/23 10:24:49;;;;;;;19.40;4.60;;;;;;;16.07;95.77;100269.98;129937;1269;115281;-60
2023/10/23 10:27:58;;;;;;;12.40;5.00;;;;;;;16.06;95.45;100272.38;129738;1259;115151;-61
2023/10/23 10:31:00;;;;;;;10.70;3.50;;;;;;;16.04;95.01;100263.57;129845;1270;114782;-60
2023/10/23 10:34:03;;;;;;;14.40;4.00;;;;;;;15.97;94.38;100271.42;129587;1278;114764;-60
2023/10/23 10:37:06;;;;;;;9.70;3.50;;;;;;;15.89;94.54;100266.77;129640;1270;114771;-61
2023/10/23 10:40:09;;;;;;;10.90;3.60;;;;;;;15.81;94.06;100265.54;129725;1259;115132;-60
2023/10/23 10:43:19;;;;;;;11.90;4.20;;;;;;;15.74;93.75;100263.90;129782;1259;114718;-60
2023/10/23 10:46:22;;;;;;;10.50;3.80;;;;;;;15.70;93.74;100261.09;129533;1263;114956;-61
2023/10/23 10:49:24;;;;;;;10.70;3.80;;;;;;;15.71;93.44;100258.71;129438;1265;114869;-60
2023/10/23 10:52:27;;;;;;;10.20;3.70;;;;;;;15.75;93.74;100254.09;129839;1263;114777;-61
2023/10/23 10:55:31;;;;;;;9.60;3.60;;;;;;;15.83;93.63;100253.34;129638;1275;114644;-61
2023/10/23 10:58:33;;;;;;;11.50;3.90;;;;;;;15.94;93.31;100250.95;129743;1267;114676;-61
2023/10/23 11:01:35;;;;;;;11.90;3.60;;;;;;;16.08;93.82;100245.25;130069;1260;114782;-61
2023/10/23 11:04:38;;;;;;;13.00;4.30;;;;;;;16.14;92.89;100238.84;129834;1269;114776;-61
2023/10/23 11:07:41;;;;;;;14.30;4.10;;;;;;;16.19;92.87;100235.29;129804;1259;114829;-62
2023/10/23 11:10:43;;;;;;;9.80;4.20;;;;;;;16.24;92.69;100241.36;129731;1278;114724;-60
2023/10/23 11:13:46;;;;;;;16.10;3.90;;;;;;;16.27;92.50;100245.16;129844;1267;114812;-60
2023/10/23 11:16:51;;;;;;;13.20;4.60;;;;;;;16.28;92.55;100245.78;129791;1270;114686;-59
2023/10/23 11:19:53;;;;;;;11.80;4.40;;;;;;;16.33;92.75;100250.27;129807;1278;114729;-59
2023/10/23 11:22:55;;;;;;;7.40;3.60;;;;;;;16.34;92.79;100249.79;129764;1258;114827;-59
2023/10/23 11:25:57;;;;;;;11.70;3.70;;;;;;;16.33;92.68;100249.14;130053;1260;114683;-59
2023/10/23 11:28:59;;;;;;;14.80;4.60;;;;;;;16.33;92.54;100250.23;129546;1264;115141;-59
2023/10/23 11:32:01;;;;;;;11.00;3.10;;;;;;;16.35;92.33;100251.95;129795;1258;114813;-62
2023/10/23 11:35:05;;;;;;;11.60;3.40;;;;;;;16.37;91.73;100246.52;129654;1261;115358;-61
2023/10/23 11:38:21;;;;;;;11.20;2.90;;;;;;;16.38;91.20;100251.71;129775;1266;114700;-61
2023/10/23 11:41:23;;;;;;;14.30;4.60;;;;;;;16.39;91.16;100249.27;129609;1260;114837;-61
2023/10/23 11:44:26;;;;;;;9.90;3.10;;;;;;;16.45;91.43;100248.10;129733;1258;114711;-61
2023/10/23 11:47:29;;;;;;;13.30;3.30;;;;;;;16.50;90.16;100247.55;129774;1272;114826;-62
2023/10/23 11:50:33;;;;;;;10.20;3.30;;;;;;;16.51;89.93;100243.48;129794;1278;114800;-61
2023/10/23 11:53:38;;;;;;;9.40;3.90;;;;;;;16.58;90.52;100242.26;129733;1260;114795;-61
2023/10/23 11:56:42;;;;;;;10.00;3.50;;;;;;;16.65;90.59;100243.04;129687;1262;115365;-60
2023/10/23 11:59:48;;;;;;;8.60;4.20;;;;;;;16.64;90.34;100244.89;129847;1263;114738;-60
2023/10/23 12:02:56;;;;;;;13.00;3.50;;;;;;;16.58;90.32;100242.23;129858;1268;114718;-59
2023/10/23 12:06:07;;;;;;;14.60;4.10;;;;;;;16.52;89.65;100238.72;129456;1267;128383;-60
2023/10/23 12:09:10;;;;;;;15.90;4.60;;;;;;;16.48;89.48;100240.33;129815;1263;114809;-62
2023/10/23 12:12:13;;;;;;;14.20;3.10;;;;;;;16.45;89.21;100239.67;129638;1274;114713;-61
2023/10/23 12:15:15;;;;;;;12.20;3.90;;;;;;;16.41;88.85;100244.80;129942;1260;114726;-62
2023/10/23 12:18:18;;;;;;;10.60;3.60;;;;;;;16.39;89.22;100241.86;129863;1269;114807;-61
2023/10/23 12:21:21;;;;;;;10.50;3.30;;;;;;;16.36;88.64;100237.90;129777;1270;115456;-61
2023/10/23 12:24:23;;;;;;;8.40;3.40;;;;;;;16.38;88.53;100231.65;129706;1270;114697;-60
2023/10/23 12:27:26;;;;;;;11.20;3.70;;;;;;;16.46;89.36;100228.54;129803;1269;114751;-61
2023/10/23 12:30:29;;;;;;;9.80;3.00;;;;;;;16.54;89.25;100232.11;129820;1269;114735;-60
2023/10/23 12:33:32;;;;;;;12.60;3.90;;;;;;;16.58;89.00;100235.39;129850;1261;115326;-61
2023/10/23 12:36:34;;;;;;;7.70;3.70;;;;;;;16.62;88.84;100229.90;129319;1264;115061;-60
2023/10/23 12:39:37;;;;;;;9.60;3.80;;;;;;;16.64;87.81;100224.50;129858;1264;115017;-62
2023/10/23 12:42:40;;;;;;;12.10;3.30;;;;;;;16.65;87.87;100216.86;129897;1270;114818;-59
2023/10/23 12:45:42;;;;;;;13.60;3.60;;;;;;;16.67;87.61;100210.97;130105;1278;114753;-61
2023/10/23 12:48:45;;;;;;;8.50;3.00;;;;;;;16.65;87.60;100210.05;129949;1271;115233;-60
2023/10/23 12:51:47;;;;;;;12.50;3.70;;;;;;;16.60;87.13;100207.13;129910;1269;114771;-59
2023/10/23 12:54:50;;;;;;;12.40;3.40;;;;;;;16.55;87.18;100201.70;129872;1259;114713;-62
2023/10/23 12:57:53;;;;;;;10.20;3.20;;;;;;;16.50;86.87;100204.25;129920;1260;114769;-63
2023/10/23 13:00:56;;;;;;;12.60;4.30;;;;;;;16.42;86.27;100200.60;129910;1260;114904;-61
2023/10/23 13:03:59;;;;;;;14.40;3.10;;;;;;;16.33;85.79;100205.02;129841;1259;114719;-63
2023/10/23 13:07:03;;;;;;;10.60;3.60;;;;;;;16.25;85.55;100200.54;129845;1257;114873;-63
2023/10/23 13:10:06;;;;;;;11.40;3.80;;;;;;;16.21;85.93;100202.52;129884;1269;115410;-61
2023/10/23 13:13:12;;;;;;;11.40;2.70;;;;;;;16.16;85.56;100205.05;129846;1260;114767;-61
2023/10/23 13:16:14;;;;;;;9.80;2.90;;;;;;;16.12;86.09;100198.69;129902;1278;114746;-60
2023/10/23 13:19:19;;;;;;;11.40;3.60;;;;;;;16.07;86.01;100200.28;129909;1278;129019;-60
2023/10/23 13:22:22;;;;;;;8.50;2.80;;;;;;;15.99;86.02;100197.81;129606;1267;115908;-61
2023/10/23 13:25:26;;;;;;;;;;;;;;;15.92;85.99;100198.69;130063;1260;114712;-60
2023/10/23 13:28:29;;;;;;;6.80;3.00;;;;;;;15.84;85.88;100195.09;130125;1260;114724;-62
2023/10/23 13:31:31;;;;;;;11.70;3.40;;;;;;;15.79;86.13;100200.14;130062;1261;114785;-62
2023/10/23 13:34:33;;;;;;;8.90;3.00;;;;;;;15.73;85.97;100196.62;129761;1263;115961;-60